createdAt,value
2023-05-18T00:00:39.378Z,2
2023-05-18T00:04:40.700Z,1.45
2023-05-18T00:08:40.248Z,1.62
2023-05-18T00:12:40.453Z,1.12
2023-05-18T00:16:40.406Z,1.1
2023-05-18T00:20:40.728Z,1.12
2023-05-18T00:24:40.460Z,1.33
2023-05-18T00:28:40.456Z,1.7
2023-05-18T00:32:39.571Z,1.52
2023-05-18T00:36:40.395Z,1.05
2023-05-18T00:40:40.463Z,1.83
2023-05-18T00:44:40.888Z,1.5
2023-05-18T00:48:40.578Z,1.33
2023-05-18T00:52:40.423Z,1.02
2023-05-18T00:56:40.587Z,1.5
2023-05-18T01:00:40.420Z,1.17
2023-05-18T01:04:40.507Z,1.95
2023-05-18T01:08:40.536Z,1.67
2023-05-18T01:12:41.114Z,1.48
2023-05-18T01:16:40.568Z,2.2
2023-05-18T01:20:40.883Z,1.9
2023-05-18T01:24:40.949Z,1.35
2023-05-18T01:28:40.218Z,1.67
2023-05-18T01:32:40.845Z,1.83
2023-05-18T01:36:40.297Z,2.53
2023-05-18T01:40:40.422Z,2.8
2023-05-18T01:44:41.122Z,3.72
2023-05-18T01:48:40.416Z,1.83
2023-05-18T01:52:40.465Z,2.25
2023-05-18T01:56:40.391Z,1.83
2023-05-18T02:00:40.380Z,2.25
2023-05-18T02:04:40.656Z,2.9
2023-05-18T02:08:40.468Z,2.45
2023-05-18T02:12:40.880Z,1.75
2023-05-18T02:16:40.304Z,1.7
2023-05-18T02:20:40.794Z,2.67
2023-05-18T02:24:39.646Z,2.35
2023-05-18T02:28:40.971Z,2.65
2023-05-18T02:32:40.507Z,1.58
2023-05-18T02:36:40.561Z,1.55
2023-05-18T02:40:40.455Z,2.42
2023-05-18T02:44:40.472Z,1.8
2023-05-18T02:48:40.418Z,1.73
2023-05-18T02:52:40.401Z,2.2
2023-05-18T02:56:40.308Z,2.03
2023-05-18T03:00:39.887Z,2.3
2023-05-18T03:04:41.153Z,2.12
2023-05-18T03:08:40.489Z,2
2023-05-18T03:12:40.534Z,1.85
2023-05-18T03:16:40.603Z,2.6
2023-05-18T03:20:39.935Z,1.73
2023-05-18T03:24:41.024Z,2.28
2023-05-18T03:28:40.508Z,2.7
2023-05-18T03:32:40.558Z,2.33
2023-05-18T03:36:40.625Z,2.07
2023-05-18T03:40:39.963Z,2.27
2023-05-18T03:44:40.364Z,2.53
2023-05-18T03:48:40.317Z,2.43
2023-05-18T03:52:40.449Z,4.5
2023-05-18T03:56:40.530Z,2.67
2023-05-18T04:00:40.258Z,2.47
2023-05-18T04:04:41.247Z,2.2
2023-05-18T04:08:40.820Z,1.8
2023-05-18T04:12:40.485Z,2.03
2023-05-18T04:16:40.818Z,1.7
2023-05-18T04:20:40.449Z,3.05
2023-05-18T04:24:41.187Z,1.87
2023-05-18T04:28:40.460Z,2.3
2023-05-18T04:32:40.555Z,2.05
2023-05-18T04:36:40.529Z,2.53
2023-05-18T04:40:40.169Z,2.5
2023-05-18T04:44:41.212Z,1.6
2023-05-18T04:48:40.194Z,1.87
2023-05-18T04:52:40.827Z,2.12
2023-05-18T04:56:40.245Z,2.47
2023-05-18T05:00:40.937Z,2.25
2023-05-18T05:04:40.660Z,2.87
2023-05-18T05:08:40.497Z,2.08
2023-05-18T05:12:40.415Z,1.67
2023-05-18T05:16:40.293Z,2.28
2023-05-18T05:20:40.353Z,2.4
2023-05-18T05:24:40.483Z,1.98
2023-05-18T05:28:40.561Z,2.87
2023-05-18T05:32:40.282Z,1.95
2023-05-18T05:36:40.630Z,2.3
2023-05-18T05:40:40.546Z,2
2023-05-18T05:44:40.437Z,2.33
2023-05-18T05:48:40.428Z,2.3
2023-05-18T05:52:40.797Z,4.45
2023-05-18T05:56:40.438Z,2.3
2023-05-18T06:00:40.614Z,2.55
2023-05-18T06:04:40.609Z,2.15
2023-05-18T06:08:40.569Z,2.03
2023-05-18T06:12:40.709Z,2.67
2023-05-18T06:16:40.531Z,2
2023-05-18T06:20:40.492Z,2.5
2023-05-18T06:24:40.511Z,2.78
2023-05-18T06:28:40.518Z,1.98
2023-05-18T06:32:40.415Z,2.33
2023-05-18T06:36:40.621Z,1.92
2023-05-18T06:40:40.563Z,2.33
2023-05-18T06:44:40.420Z,1.87
2023-05-18T06:48:40.587Z,1.92
2023-05-18T06:52:40.812Z,2.22
2023-05-18T06:56:39.984Z,1.27
2023-05-18T07:00:40.020Z,1.95
2023-05-18T07:04:39.343Z,1.98
2023-05-18T07:08:40.911Z,1.37
2023-05-18T07:12:40.374Z,1.75
2023-05-18T07:16:40.470Z,1.92
2023-05-18T07:20:40.552Z,1.5
2023-05-18T07:24:40.901Z,1.27
2023-05-18T07:28:40.579Z,1.73
2023-05-18T07:32:40.494Z,1.83
2023-05-18T07:36:40.682Z,1.55
2023-05-18T07:40:40.566Z,1.6
2023-05-18T07:44:41.040Z,2.65
2023-05-18T07:48:41.251Z,1.35
2023-05-18T07:52:40.721Z,1.55
2023-05-18T07:56:40.416Z,1.3
2023-05-18T08:00:40.735Z,1.8
2023-05-18T08:04:41.119Z,1.23
2023-05-18T08:08:40.422Z,1.15
2023-05-18T08:12:40.461Z,1.5
2023-05-18T08:16:41.145Z,2.3
2023-05-18T08:20:41.144Z,1.55
2023-05-18T08:24:40.446Z,2
2023-05-18T08:28:40.467Z,1.1
2023-05-18T08:32:41.218Z,1.3
2023-05-18T08:36:41.250Z,1.5
2023-05-18T08:40:40.581Z,1.87
2023-05-18T08:44:40.508Z,1.62
2023-05-18T08:48:40.557Z,1.37
2023-05-18T08:52:40.557Z,1.98
2023-05-18T08:56:40.560Z,1.67
2023-05-18T09:00:40.957Z,1.2
2023-05-18T09:04:40.418Z,1.37
2023-05-18T09:08:41.083Z,1.48
2023-05-18T09:12:40.234Z,1.58
2023-05-18T09:16:40.608Z,1.75
2023-05-18T09:20:40.957Z,1.35
2023-05-18T09:24:40.539Z,1.25
2023-05-18T09:28:40.492Z,1.8
2023-05-18T09:32:40.450Z,2.17
2023-05-18T09:36:40.509Z,1.77
2023-05-18T09:40:40.460Z,1.35
2023-05-18T09:44:41.159Z,1.45
2023-05-18T09:48:41.146Z,1.3
2023-05-18T09:52:40.489Z,2.12
2023-05-18T09:56:40.532Z,1.48
2023-05-18T10:00:40.998Z,1.42
2023-05-18T10:04:39.960Z,1.55
2023-05-18T10:08:40.929Z,1.3
2023-05-18T10:12:40.344Z,1.2
2023-05-18T10:16:40.593Z,1.25
2023-05-18T10:20:40.511Z,1.8
2023-05-18T10:24:41.035Z,1.45
2023-05-18T10:28:40.621Z,2.2
2023-05-18T10:32:41.114Z,1.7
2023-05-18T10:36:40.521Z,1.23
2023-05-18T10:40:40.602Z,1.5
2023-05-18T10:44:41.067Z,1.7
2023-05-18T10:48:40.920Z,1.4
2023-05-18T10:52:40.768Z,1.65
2023-05-18T10:56:40.588Z,1.7
2023-05-18T11:00:40.686Z,1.77
2023-05-18T11:04:40.646Z,2.08
2023-05-18T11:08:41.438Z,1.8
2023-05-18T11:12:40.494Z,1.77
2023-05-18T11:16:40.507Z,1.4
2023-05-18T11:20:40.740Z,1.83
2023-05-18T11:24:40.476Z,3.37
2023-05-18T11:28:40.329Z,1.8
2023-05-18T11:32:40.666Z,1.5
2023-05-18T11:36:40.448Z,1.3
2023-05-18T11:40:40.707Z,2.25
2023-05-18T11:44:40.407Z,1.67
2023-05-18T11:48:40.649Z,1.23
2023-05-18T11:52:39.548Z,2.15
2023-05-18T11:56:40.337Z,1.5
2023-05-18T12:00:40.954Z,1.87
2023-05-18T12:04:40.642Z,1.65
2023-05-18T12:08:40.527Z,1.3
2023-05-18T12:12:40.458Z,2.7
2023-05-18T12:16:40.463Z,1.85
2023-05-18T12:20:40.326Z,1.58
2023-05-18T12:24:39.347Z,1.15
2023-05-18T12:28:41.150Z,1.45
2023-05-18T12:32:40.430Z,1.4
2023-05-18T12:36:40.622Z,1.65
2023-05-18T12:40:40.540Z,1.45
2023-05-18T12:44:40.493Z,2.83
2023-05-18T12:48:40.627Z,1.55
2023-05-18T12:52:40.410Z,1.83
2023-05-18T12:56:40.459Z,1.25
2023-05-18T13:00:40.653Z,1.55
2023-05-18T13:04:40.546Z,1.42
2023-05-18T13:08:40.527Z,1.85
2023-05-18T13:12:40.982Z,1.2
2023-05-18T13:16:40.169Z,1.52
2023-05-18T13:20:41.196Z,1.3
2023-05-18T13:24:40.537Z,2.37
2023-05-18T13:28:40.716Z,1.08
2023-05-18T13:32:40.567Z,1.25
2023-05-18T13:36:40.596Z,1.2
2023-05-18T13:40:40.491Z,2.12
2023-05-18T13:44:40.525Z,1.83
2023-05-18T13:48:40.562Z,1.33
2023-05-18T13:52:40.459Z,2
2023-05-18T13:56:40.846Z,1.77
2023-05-18T14:00:40.587Z,1.58
2023-05-18T14:04:40.594Z,1.27
2023-05-18T14:08:40.499Z,1.65
2023-05-18T14:12:40.601Z,1.33
2023-05-18T14:16:40.589Z,1.12
2023-05-18T14:20:40.606Z,1.37
2023-05-18T14:24:40.868Z,1.62
2023-05-18T14:28:40.516Z,1.42
2023-05-18T14:32:41.107Z,1.7
2023-05-18T14:36:40.546Z,1.6
2023-05-18T14:40:40.427Z,2.15
2023-05-18T14:44:40.404Z,1.42
2023-05-18T14:48:40.539Z,1.35
2023-05-18T14:52:40.479Z,1.67
2023-05-18T14:56:40.687Z,1.4
2023-05-18T15:00:39.663Z,1.58
2023-05-18T15:04:40.853Z,1.48
2023-05-18T15:08:40.601Z,1.8
2023-05-18T15:12:40.462Z,1.33
2023-05-18T15:16:40.643Z,1.3
2023-05-18T15:20:40.605Z,1.27
2023-05-18T15:24:39.970Z,1.77
2023-05-18T15:28:41.171Z,2.2
2023-05-18T15:32:40.803Z,1.37
2023-05-18T15:36:40.644Z,1.55
2023-05-18T15:40:40.628Z,1.33
2023-05-18T15:44:39.669Z,1.67
2023-05-18T15:48:41.140Z,1.52
2023-05-18T15:52:40.537Z,1.67
2023-05-18T15:56:40.557Z,1.73
2023-05-18T16:00:40.744Z,1.3
2023-05-18T16:04:40.407Z,1.75
2023-05-18T16:08:40.450Z,1.23
2023-05-18T16:12:40.441Z,1.67
2023-05-18T16:16:40.572Z,3.55
2023-05-18T16:20:40.680Z,1.3
2023-05-18T16:24:40.191Z,0.9
2023-05-18T16:28:40.561Z,1.15
2023-05-18T16:32:41.267Z,0.88
2023-05-18T16:36:40.536Z,1.3
2023-05-18T16:40:40.574Z,1.62
2023-05-18T16:44:40.426Z,1.4
2023-05-18T16:48:40.847Z,0.9
2023-05-18T16:52:40.936Z,1.27
2023-05-18T16:56:40.273Z,1.33
2023-05-18T17:00:40.807Z,1.05
2023-05-18T17:04:40.695Z,0.9
2023-05-18T17:08:39.615Z,1.05
2023-05-18T17:12:40.513Z,1.23
2023-05-18T17:16:40.603Z,1.1
2023-05-18T17:20:40.601Z,0.7
2023-05-18T17:24:40.477Z,0.9
2023-05-18T17:28:40.542Z,0.9
2023-05-18T17:32:40.306Z,0.73
2023-05-18T17:36:40.353Z,1.25
2023-05-18T17:40:40.784Z,0.85
2023-05-18T17:44:39.698Z,1.2
2023-05-18T17:48:41.286Z,1.25
2023-05-18T17:52:40.444Z,1.02
2023-05-18T17:56:40.446Z,1.33
2023-05-18T18:00:40.646Z,1.2
2023-05-18T18:04:39.873Z,1.4
2023-05-18T18:08:40.527Z,0.98
2023-05-18T18:12:40.554Z,1.3
2023-05-18T18:16:41.245Z,1.02
2023-05-18T18:20:40.549Z,1.23
2023-05-18T18:24:40.425Z,1.27
2023-05-18T18:28:40.409Z,1.1
2023-05-18T18:32:40.683Z,1.92
2023-05-18T18:36:40.504Z,2.1
2023-05-18T18:40:40.602Z,2.22
2023-05-18T18:44:40.610Z,1.77
2023-05-18T18:48:40.538Z,1.6
2023-05-18T18:52:40.561Z,1.98
2023-05-18T18:56:40.420Z,1.98
2023-05-18T19:00:40.538Z,2.8
2023-05-18T19:04:41.107Z,3.05
2023-05-18T19:08:40.502Z,3.2
2023-05-18T19:12:40.421Z,2.37
2023-05-18T19:16:40.511Z,3.1
2023-05-18T19:20:40.640Z,2.9
2023-05-18T19:24:39.320Z,3.1
2023-05-18T19:28:40.704Z,2.67
2023-05-18T19:32:40.589Z,4.25
2023-05-18T19:36:40.440Z,2.47
2023-05-18T19:40:40.564Z,2.53
2023-05-18T19:44:40.461Z,3.08
2023-05-18T19:48:40.560Z,3.2
2023-05-18T19:52:40.536Z,4.8
2023-05-18T19:56:40.256Z,3.33
2023-05-18T20:00:40.582Z,3.33
2023-05-18T20:04:40.888Z,2.85
2023-05-18T20:08:40.427Z,3.45
2023-05-18T20:12:41.150Z,3.72
2023-05-18T20:16:40.541Z,3.97
2023-05-18T20:20:40.403Z,4.03
2023-05-18T20:24:40.400Z,3.37
2023-05-18T20:28:40.699Z,3.4
2023-05-18T20:32:40.480Z,3.1
2023-05-18T20:36:40.576Z,2.6
2023-05-18T20:40:40.457Z,2.4
2023-05-18T20:44:40.514Z,3.2
2023-05-18T20:48:40.487Z,2.62
2023-05-18T20:52:40.413Z,2.78
2023-05-18T20:56:40.451Z,2.6
2023-05-18T21:00:40.422Z,4.93
2023-05-18T21:04:40.558Z,2.95
2023-05-18T21:08:40.439Z,2.65
2023-05-18T21:12:39.320Z,3.8
2023-05-18T21:16:40.724Z,2.12
2023-05-18T21:20:40.894Z,2.4
2023-05-18T21:24:40.895Z,2
2023-05-18T21:28:40.495Z,2.37
2023-05-18T21:32:40.736Z,3.15
2023-05-18T21:36:40.512Z,2.35
2023-05-18T21:40:42.734Z,1.85
2023-05-18T21:44:40.803Z,2.4
2023-05-18T21:48:40.642Z,2.9
2023-05-18T21:52:40.189Z,2.4
2023-05-18T21:56:40.673Z,2.35
2023-05-18T22:00:40.357Z,2.7
2023-05-18T22:04:40.558Z,2.85
2023-05-18T22:08:40.563Z,2.28
2023-05-18T22:12:40.583Z,2.12
2023-05-18T22:16:40.694Z,2.08
2023-05-18T22:20:40.871Z,2.35
2023-05-18T22:24:40.380Z,2.6
2023-05-18T22:28:40.664Z,2.37
2023-05-18T22:32:40.269Z,2.9
2023-05-18T22:36:40.651Z,3.7
2023-05-18T22:40:40.463Z,3.3
2023-05-18T22:44:40.458Z,2.8
2023-05-18T22:48:40.580Z,2.1
2023-05-18T22:52:39.982Z,2.17
2023-05-18T22:56:40.454Z,2.42
2023-05-18T23:00:40.491Z,2.55
2023-05-18T23:04:40.449Z,2.05
2023-05-18T23:08:40.462Z,2.45
2023-05-18T23:12:40.369Z,2.5
2023-05-18T23:16:40.701Z,2
2023-05-18T23:20:40.522Z,2.15
2023-05-18T23:24:40.614Z,2.55
2023-05-18T23:28:40.541Z,2.28
2023-05-18T23:32:40.575Z,1.67
2023-05-18T23:36:40.539Z,1.95
2023-05-18T23:40:40.484Z,2.05
2023-05-18T23:44:40.291Z,1.9
2023-05-18T23:48:40.780Z,2.53
2023-05-18T23:52:40.540Z,2.35
2023-05-18T23:56:40.443Z,2.05
